Time;durP1;ratioP1;P1;durP2;ratioP2;P2;SDS_P1;SDS_P2;PMS_P1;PMS_P2;Temp;Humidity;BMP_temperature;BMP_pressure;BME280_temperature;BME280_humidity;BME280_pressure;Samples;Min_cycle;Max_cycle;Signal;HPM_P1;HPM_P2
2021/12/12 00:01:21;;;;;;;16.52;4.32;;;;;;;;;;4995037;28;20034;-66
2021/12/12 00:03:51;;;;;;;7.20;3.75;;;;;;;;;;4995011;28;20482;-66
2021/12/12 00:06:18;;;;;;;10.50;4.53;;;;;;;;;;4993842;28;20073;-66
2021/12/12 00:08:45;;;;;;;13.43;4.68;;;;;;;;;;4993868;28;20452;-66
2021/12/12 00:11:14;;;;;;;14.68;5.47;;;;;;;;;;4993814;28;20027;-66
2021/12/12 00:13:45;;;;;;;9.93;4.63;;;;;;;;;;4993344;28;20058;-66
2021/12/12 00:16:12;;;;;;;21.10;5.70;;;;;;;;;;4993311;28;20022;-66
2021/12/12 00:18:41;;;;;;;12.20;5.00;;;;;;;;;;4993623;28;20026;-66
2021/12/12 00:21:08;;;;;;;14.73;4.85;;;;;;;;;;4994511;28;20087;-66
2021/12/12 00:23:34;;;;;;;21.27;4.95;;;;;;;;;;4994541;28;20042;-66
2021/12/12 00:26:01;;;;;;;16.60;5.47;;;;;;;;;;4994745;28;20027;-66
2021/12/12 00:28:28;;;;;;;21.98;5.30;;;;;;;;;;4994077;28;20513;-66
2021/12/12 00:30:56;;;;;;;19.30;5.43;;;;;;;;;;4994540;28;20026;-66
2021/12/12 00:33:23;;;;;;;21.80;7.22;;;;;;;;;;4993451;28;20121;-66
2021/12/12 00:35:50;;;;;;;27.83;6.30;;;;;;;;;;4994395;28;20046;-66
2021/12/12 00:38:21;;;;;;;32.30;6.13;;;;;;;;;;4994187;28;20022;-66
2021/12/12 00:40:50;;;;;;;19.85;6.13;;;;;;;;;;4994541;28;20088;-66
2021/12/12 00:43:24;;;;;;;21.23;6.18;;;;;;;;;;4992492;28;20386;-66
2021/12/12 00:45:51;;;;;;;23.73;6.13;;;;;;;;;;4994349;28;20397;-66
2021/12/12 00:48:17;;;;;;;27.15;6.47;;;;;;;;;;4992972;28;20034;-66
2021/12/12 00:50:44;;;;;;;26.25;6.30;;;;;;;;;;4994305;28;20475;-66
2021/12/12 00:53:11;;;;;;;28.13;6.10;;;;;;;;;;4993047;28;20462;-66
2021/12/12 00:55:38;;;;;;;26.88;6.07;;;;;;;;;;4993286;28;20120;-66
2021/12/12 00:58:09;;;;;;;29.20;5.97;;;;;;;;;;4993923;28;20041;-66
2021/12/12 01:00:38;;;;;;;32.45;6.55;;;;;;;;;;4993428;28;20040;-66
2021/12/12 01:03:08;;;;;;;32.80;5.78;;;;;;;;;;4993194;28;20057;-66
2021/12/12 01:05:35;;;;;;;30.88;5.88;;;;;;;;;;4993527;28;20479;-66
2021/12/12 01:08:01;;;;;;;31.58;5.28;;;;;;;;;;4993905;28;20034;-66
2021/12/12 01:10:30;;;;;;;28.63;5.55;;;;;;;;;;4993548;28;20039;-66
2021/12/12 01:12:58;;;;;;;33.45;5.82;;;;;;;;;;4993771;28;20022;-66
2021/12/12 01:15:27;;;;;;;47.63;8.48;;;;;;;;;;4992653;28;20030;-66
2021/12/12 01:17:55;;;;;;;29.10;5.10;;;;;;;;;;4993863;28;20069;-66
2021/12/12 01:20:33;;;;;;;34.60;5.20;;;;;;;;;;4993567;28;20026;-66
2021/12/12 01:23:01;;;;;;;28.77;5.00;;;;;;;;;;4993077;28;20031;-66
2021/12/12 01:25:31;;;;;;;28.73;4.82;;;;;;;;;;4992666;28;20040;-66
2021/12/12 01:27:58;;;;;;;28.77;4.57;;;;;;;;;;4993715;28;20093;-66
2021/12/12 01:30:24;;;;;;;31.77;5.15;;;;;;;;;;4992580;28;20034;-66
2021/12/12 01:32:52;;;;;;;32.17;4.40;;;;;;;;;;4992619;28;20032;-66
2021/12/12 01:35:20;;;;;;;22.50;4.63;;;;;;;;;;4992756;28;20050;-66
2021/12/12 01:40:48;;;;;;;30.77;4.38;;;;;;;;;;4932966;29;20586;-66
2021/12/12 01:43:24;;;;;;;29.33;4.45;;;;;;;;;;4933412;29;20035;-66
2021/12/12 01:45:58;;;;;;;23.50;4.28;;;;;;;;;;4932301;29;20043;-66
2021/12/12 01:48:47;;;;;;;28.63;5.13;;;;;;;;;;4933784;29;20459;-66
2021/12/12 01:51:14;;;;;;;35.15;4.38;;;;;;;;;;4942818;29;20075;-66
2021/12/12 01:53:43;;;;;;;34.35;4.07;;;;;;;;;;4952361;29;20079;-66
2021/12/12 01:56:17;;;;;;;29.83;5.05;;;;;;;;;;4951956;29;20126;-66
2021/12/12 01:58:44;;;;;;;37.78;4.00;;;;;;;;;;4952246;29;20117;-66
2021/12/12 02:01:14;;;;;;;21.90;4.25;;;;;;;;;;4939796;29;20032;-66
2021/12/12 02:03:50;;;;;;;33.33;3.95;;;;;;;;;;4932168;29;20079;-66
2021/12/12 02:06:18;;;;;;;26.95;3.80;;;;;;;;;;4933187;29;20107;-66
2021/12/12 02:08:44;;;;;;;26.30;3.70;;;;;;;;;;4932649;29;20141;-66
2021/12/12 02:11:16;;;;;;;31.08;5.43;;;;;;;;;;4932866;29;20050;-66
2021/12/12 02:13:44;;;;;;;24.35;3.90;;;;;;;;;;4932580;29;20127;-66
2021/12/12 02:16:10;;;;;;;17.80;4.22;;;;;;;;;;4932256;29;20060;-66
2021/12/12 02:18:39;;;;;;;28.45;5.13;;;;;;;;;;4989175;28;20499;-66
2021/12/12 02:21:19;;;;;;;26.00;3.42;;;;;;;;;;4992495;28;20022;-66
2021/12/12 02:35:08;;;;;;;24.65;3.85;;;;;;;;;;4992741;28;20040;-66
2021/12/12 02:35:26;;;;;;;33.53;4.00;;;;;;;;;;4992264;28;20051;-66
2021/12/12 02:37:54;;;;;;;27.48;3.50;;;;;;;;;;4992270;28;20044;-66
2021/12/12 02:40:23;;;;;;;33.05;3.58;;;;;;;;;;4996915;28;20038;-66
2021/12/12 02:42:50;;;;;;;23.35;3.83;;;;;;;;;;4996413;28;20022;-66
2021/12/12 02:45:18;;;;;;;22.25;3.92;;;;;;;;;;4995705;28;20038;-66
2021/12/12 02:47:47;;;;;;;22.77;3.42;;;;;;;;;;4996269;28;20034;-66
2021/12/12 02:50:18;;;;;;;26.00;3.60;;;;;;;;;;4996772;28;20027;-66
2021/12/12 02:52:49;;;;;;;26.45;3.75;;;;;;;;;;4995832;28;20073;-66
2021/12/12 02:55:25;;;;;;;21.17;3.45;;;;;;;;;;4996481;28;20457;-66
2021/12/12 02:57:52;;;;;;;30.80;4.32;;;;;;;;;;4995258;28;20107;-66
2021/12/12 03:00:21;;;;;;;26.92;3.40;;;;;;;;;;4996291;28;20030;-66
2021/12/12 03:02:48;;;;;;;37.10;4.38;;;;;;;;;;4995656;28;20455;-66
2021/12/12 03:05:15;;;;;;;24.73;3.35;;;;;;;;;;4996435;28;20486;-66
2021/12/12 03:07:42;;;;;;;29.42;3.38;;;;;;;;;;4995393;28;20038;-66
2021/12/12 03:10:11;;;;;;;18.90;3.10;;;;;;;;;;4996029;28;20099;-66
2021/12/12 03:12:37;;;;;;;35.65;4.15;;;;;;;;;;4995179;28;20026;-66
2021/12/12 03:15:08;;;;;;;26.90;3.17;;;;;;;;;;4996165;28;20018;-66
2021/12/12 03:17:34;;;;;;;18.90;3.65;;;;;;;;;;4995121;28;20383;-66
2021/12/12 03:20:02;;;;;;;24.90;3.55;;;;;;;;;;4995774;28;20037;-66
2021/12/12 03:22:28;;;;;;;26.98;3.35;;;;;;;;;;4995380;28;20033;-66
2021/12/12 03:24:55;;;;;;;24.83;3.40;;;;;;;;;;4995793;28;20033;-66
2021/12/12 03:27:22;;;;;;;27.83;3.88;;;;;;;;;;4995932;28;20026;-66
2021/12/12 03:29:49;;;;;;;24.08;3.50;;;;;;;;;;4994370;28;20052;-66
2021/12/12 03:32:17;;;;;;;25.50;4.90;;;;;;;;;;4995856;28;20449;-66
2021/12/12 03:34:45;;;;;;;18.98;3.53;;;;;;;;;;4995158;28;20048;-66
2021/12/12 03:37:13;;;;;;;21.65;2.90;;;;;;;;;;4994804;28;20371;-66
2021/12/12 03:39:40;;;;;;;25.05;5.85;;;;;;;;;;4976191;28;20038;-66
2021/12/12 03:42:09;;;;;;;21.30;2.80;;;;;;;;;;4976181;28;20082;-66
2021/12/12 03:44:35;;;;;;;25.90;3.45;;;;;;;;;;4975658;28;20489;-66
2021/12/12 03:47:14;;;;;;;16.42;2.83;;;;;;;;;;4975953;28;20074;-66
2021/12/12 03:49:40;;;;;;;25.42;3.17;;;;;;;;;;4994024;28;20034;-66
2021/12/12 03:52:08;;;;;;;14.10;2.53;;;;;;;;;;4994187;28;20030;-66
2021/12/12 03:54:34;;;;;;;23.00;3.10;;;;;;;;;;4995250;28;20030;-66
2021/12/12 03:57:00;;;;;;;17.40;2.42;;;;;;;;;;4995324;28;20550;-66
2021/12/12 03:59:26;;;;;;;26.35;3.20;;;;;;;;;;4994804;28;20038;-66
2021/12/12 04:01:53;;;;;;;23.85;3.28;;;;;;;;;;4994071;28;20121;-66
2021/12/12 04:04:22;;;;;;;16.60;3.08;;;;;;;;;;4994104;28;20014;-66
2021/12/12 04:06:49;;;;;;;17.70;3.00;;;;;;;;;;4993942;28;20030;-66
2021/12/12 04:09:16;;;;;;;21.85;3.63;;;;;;;;;;4994361;28;20045;-66
2021/12/12 04:11:45;;;;;;;27.52;3.58;;;;;;;;;;4994944;28;20026;-66
2021/12/12 04:14:11;;;;;;;19.55;3.25;;;;;;;;;;4994720;28;20030;-66
2021/12/12 04:16:39;;;;;;;21.42;3.28;;;;;;;;;;4993870;28;20394;-66
2021/12/12 04:19:06;;;;;;;24.10;3.35;;;;;;;;;;4994305;28;20538;-66
2021/12/12 04:21:32;;;;;;;17.75;2.80;;;;;;;;;;4994857;28;20098;-66
2021/12/12 04:23:59;;;;;;;18.17;2.75;;;;;;;;;;4994316;28;20037;-66
2021/12/12 04:26:30;;;;;;;14.25;2.67;;;;;;;;;;4994899;28;20038;-66
2021/12/12 04:29:01;;;;;;;16.33;2.80;;;;;;;;;;4993491;28;20156;-66
2021/12/12 04:31:28;;;;;;;17.02;2.47;;;;;;;;;;4994096;28;20026;-66
2021/12/12 04:33:55;;;;;;;13.32;2.33;;;;;;;;;;4993104;28;20030;-66
2021/12/12 04:36:26;;;;;;;11.77;2.00;;;;;;;;;;4994811;28;20474;-66
2021/12/12 04:38:57;;;;;;;14.52;2.90;;;;;;;;;;4994332;28;20450;-66
2021/12/12 04:41:23;;;;;;;20.73;2.92;;;;;;;;;;4994470;28;20061;-66
2021/12/12 04:43:49;;;;;;;18.85;2.45;;;;;;;;;;4994107;28;20509;-66
2021/12/12 04:46:22;;;;;;;12.68;2.33;;;;;;;;;;4993560;28;20026;-66
2021/12/12 04:51:45;;;;;;;20.85;3.55;;;;;;;;;;4993565;28;19956;-66
2021/12/12 04:54:30;;;;;;;15.68;2.30;;;;;;;;;;4994039;28;20049;-66
2021/12/12 04:56:59;;;;;;;28.73;2.72;;;;;;;;;;4993746;28;20030;-67
2021/12/12 04:59:34;;;;;;;17.95;2.75;;;;;;;;;;4993490;28;20038;-66
2021/12/12 05:02:09;;;;;;;15.73;2.80;;;;;;;;;;4992436;28;20062;-66
2021/12/12 05:04:48;;;;;;;16.88;4.20;;;;;;;;;;4993565;28;20026;-66
2021/12/12 05:07:32;;;;;;;19.55;2.33;;;;;;;;;;4993591;28;20030;-66
2021/12/12 05:10:01;;;;;;;14.57;2.40;;;;;;;;;;4993468;28;20128;-66
2021/12/12 05:12:32;;;;;;;19.75;2.30;;;;;;;;;;4994028;28;20414;-66
2021/12/12 05:15:00;;;;;;;15.68;2.15;;;;;;;;;;4992604;28;20069;-66
2021/12/12 05:17:40;;;;;;;20.88;2.58;;;;;;;;;;4993298;28;20031;-66
2021/12/12 05:20:09;;;;;;;22.60;2.35;;;;;;;;;;4993659;28;20053;-66
2021/12/12 05:22:38;;;;;;;12.20;1.55;;;;;;;;;;4993541;28;20105;-66
2021/12/12 05:25:06;;;;;;;13.43;2.35;;;;;;;;;;4993473;28;20026;-66
2021/12/12 05:27:33;;;;;;;19.42;3.20;;;;;;;;;;4992770;28;20026;-66
2021/12/12 05:30:01;;;;;;;13.68;2.15;;;;;;;;;;4993090;28;20066;-66
2021/12/12 05:32:30;;;;;;;9.98;1.95;;;;;;;;;;4993354;28;20037;-66
2021/12/12 05:34:57;;;;;;;13.85;1.80;;;;;;;;;;4991785;28;20031;-66
2021/12/12 05:37:23;;;;;;;15.73;1.85;;;;;;;;;;4991910;28;20418;-66
2021/12/12 05:39:49;;;;;;;15.77;3.05;;;;;;;;;;4993048;28;20512;-66
2021/12/12 05:42:15;;;;;;;11.45;1.92;;;;;;;;;;4992595;28;20034;-66
2021/12/12 05:44:42;;;;;;;12.82;1.73;;;;;;;;;;4993057;28;20403;-66
2021/12/12 05:47:09;;;;;;;18.38;1.85;;;;;;;;;;4992075;28;20034;-66
2021/12/12 05:49:36;;;;;;;16.50;2.42;;;;;;;;;;4993161;28;20042;-66
2021/12/12 05:52:06;;;;;;;14.50;1.92;;;;;;;;;;4992875;28;20033;-66
2021/12/12 05:54:32;;;;;;;21.45;2.75;;;;;;;;;;4993268;28;20026;-66
2021/12/12 05:57:00;;;;;;;12.07;2.47;;;;;;;;;;4992224;28;20061;-66
2021/12/12 05:59:27;;;;;;;9.27;1.80;;;;;;;;;;4993221;28;20073;-66
2021/12/12 06:01:53;;;;;;;11.07;1.88;;;;;;;;;;4992584;28;20026;-66
2021/12/12 06:04:20;;;;;;;13.77;2.15;;;;;;;;;;4992543;28;20026;-66
2021/12/12 06:06:46;;;;;;;14.85;2.10;;;;;;;;;;4993010;28;20045;-66
2021/12/12 06:09:14;;;;;;;12.10;2.65;;;;;;;;;;4991846;28;20030;-66
2021/12/12 06:11:42;;;;;;;12.43;2.13;;;;;;;;;;4993101;28;20030;-66
2021/12/12 06:14:09;;;;;;;9.98;1.90;;;;;;;;;;4992771;28;20109;-66
2021/12/12 06:16:36;;;;;;;10.32;1.63;;;;;;;;;;4992736;28;20455;-66
2021/12/12 06:19:08;;;;;;;11.68;2.08;;;;;;;;;;4992727;28;20109;-66
2021/12/12 06:21:34;;;;;;;11.80;1.73;;;;;;;;;;4992809;28;20117;-66
2021/12/12 06:24:01;;;;;;;9.77;2.00;;;;;;;;;;4991628;28;20018;-66
2021/12/12 06:26:28;;;;;;;13.75;2.58;;;;;;;;;;4991666;28;20039;-66
2021/12/12 06:28:54;;;;;;;11.45;1.60;;;;;;;;;;4992630;28;20062;-66
2021/12/12 06:31:23;;;;;;;10.95;2.22;;;;;;;;;;4991008;28;20089;-66
2021/12/12 06:33:49;;;;;;;9.60;2.05;;;;;;;;;;4992105;28;20030;-66
2021/12/12 06:36:16;;;;;;;10.48;1.85;;;;;;;;;;4992508;28;20030;-66
2021/12/12 06:38:44;;;;;;;10.50;2.10;;;;;;;;;;4992528;28;20019;-66
2021/12/12 06:41:10;;;;;;;11.95;3.05;;;;;;;;;;4992254;28;20121;-66
2021/12/12 06:43:36;;;;;;;10.13;2.45;;;;;;;;;;4991921;28;20026;-66
2021/12/12 06:46:06;;;;;;;8.50;1.80;;;;;;;;;;4990711;28;20030;-66
2021/12/12 06:48:33;;;;;;;10.95;2.13;;;;;;;;;;4989399;28;20083;-66
2021/12/12 06:51:01;;;;;;;22.35;2.05;;;;;;;;;;4987745;28;20031;-66
2021/12/12 06:53:28;;;;;;;11.88;2.30;;;;;;;;;;4991453;28;20438;-66
2021/12/12 06:55:54;;;;;;;14.95;2.20;;;;;;;;;;4990313;28;20024;-66
2021/12/12 06:58:21;;;;;;;13.60;2.45;;;;;;;;;;4991163;28;20485;-66
2021/12/12 07:00:50;;;;;;;12.30;2.03;;;;;;;;;;4991759;28;20038;-66
2021/12/12 07:03:17;;;;;;;15.90;2.10;;;;;;;;;;4991199;28;20041;-66
2021/12/12 07:05:43;;;;;;;11.02;2.22;;;;;;;;;;4991794;28;20035;-66
2021/12/12 07:08:10;;;;;;;9.38;2.13;;;;;;;;;;4991411;28;20023;-66
2021/12/12 07:10:36;;;;;;;18.83;2.88;;;;;;;;;;4991695;28;20026;-66
2021/12/12 07:13:03;;;;;;;11.40;2.40;;;;;;;;;;4990843;28;20081;-66
2021/12/12 07:15:31;;;;;;;19.25;3.00;;;;;;;;;;4991533;28;20029;-66
2021/12/12 07:17:59;;;;;;;12.52;2.38;;;;;;;;;;4991473;28;20042;-66
2021/12/12 07:20:26;;;;;;;11.05;2.13;;;;;;;;;;4992130;28;20513;-66
2021/12/12 07:22:53;;;;;;;14.77;2.58;;;;;;;;;;4991912;28;20102;-66
2021/12/12 07:25:20;;;;;;;18.55;3.08;;;;;;;;;;4994596;28;20022;-66
2021/12/12 07:27:47;;;;;;;10.98;2.03;;;;;;;;;;4994997;28;20121;-66
2021/12/12 07:30:13;;;;;;;16.55;2.53;;;;;;;;;;4993832;28;20030;-66
2021/12/12 07:32:39;;;;;;;8.27;2.22;;;;;;;;;;4993738;28;20026;-66
2021/12/12 07:35:07;;;;;;;14.30;2.30;;;;;;;;;;4994275;28;20049;-66
2021/12/12 07:37:33;;;;;;;10.88;2.35;;;;;;;;;;4985320;28;20038;-66
2021/12/12 07:39:59;;;;;;;14.52;2.40;;;;;;;;;;4993437;28;20389;-66
2021/12/12 07:42:27;;;;;;;20.85;2.85;;;;;;;;;;4992500;28;20100;-65
2021/12/12 07:44:55;;;;;;;16.05;2.72;;;;;;;;;;4994176;28;20478;-65
2021/12/12 07:47:21;;;;;;;12.65;2.92;;;;;;;;;;4993287;28;20498;-65
2021/12/12 07:49:48;;;;;;;15.88;2.17;;;;;;;;;;4993528;28;20034;-65
2021/12/12 07:52:16;;;;;;;13.68;2.17;;;;;;;;;;4991884;28;20030;-65
2021/12/12 07:54:44;;;;;;;19.67;2.53;;;;;;;;;;4993668;28;20030;-65
2021/12/12 07:57:10;;;;;;;12.32;2.30;;;;;;;;;;4992682;28;20401;-65
2021/12/12 07:59:38;;;;;;;10.25;2.42;;;;;;;;;;4994152;28;20037;-65
2021/12/12 08:02:06;;;;;;;15.65;2.60;;;;;;;;;;4990607;28;20030;-66
2021/12/12 08:04:32;;;;;;;10.65;1.88;;;;;;;;;;4990747;28;20030;-66
2021/12/12 08:07:00;;;;;;;11.35;3.58;;;;;;;;;;4992988;28;20019;-66
2021/12/12 08:09:27;;;;;;;13.40;2.22;;;;;;;;;;4994630;28;20034;-67
2021/12/12 08:11:53;;;;;;;10.82;2.55;;;;;;;;;;4993603;28;20022;-67
2021/12/12 08:14:22;;;;;;;12.48;3.20;;;;;;;;;;4992135;28;20014;-67
2021/12/12 08:16:49;;;;;;;16.65;2.75;;;;;;;;;;4993212;28;20445;-64
2021/12/12 08:19:18;;;;;;;26.27;5.07;;;;;;;;;;4987440;28;20034;-64
2021/12/12 08:21:44;;;;;;;12.25;4.38;;;;;;;;;;4977338;28;20019;-64
2021/12/12 08:24:11;;;;;;;14.60;5.03;;;;;;;;;;4992772;28;20027;-64
2021/12/12 08:26:41;;;;;;;10.18;3.53;;;;;;;;;;4993114;28;20509;-64
2021/12/12 08:29:08;;;;;;;18.98;3.60;;;;;;;;;;4993792;28;20030;-64
2021/12/12 08:31:35;;;;;;;14.10;2.65;;;;;;;;;;4993835;28;20022;-64
2021/12/12 08:34:03;;;;;;;7.78;2.03;;;;;;;;;;4993688;28;20030;-64
2021/12/12 08:36:30;;;;;;;9.65;1.58;;;;;;;;;;4991956;28;20110;-64
2021/12/12 08:38:56;;;;;;;15.43;2.20;;;;;;;;;;4994051;28;20474;-64
2021/12/12 08:41:22;;;;;;;14.55;2.63;;;;;;;;;;4992578;28;20505;-65
2021/12/12 08:43:48;;;;;;;19.02;3.38;;;;;;;;;;4994082;28;20109;-64
2021/12/12 08:46:15;;;;;;;14.43;3.50;;;;;;;;;;4991125;28;20030;-65
2021/12/12 08:48:50;;;;;;;10.73;2.95;;;;;;;;;;4992366;28;20026;-65
2021/12/12 08:51:22;;;;;;;13.93;2.53;;;;;;;;;;4988268;28;20106;-65
2021/12/12 08:53:50;;;;;;;11.45;2.17;;;;;;;;;;4992884;28;20042;-65
2021/12/12 08:56:30;;;;;;;10.45;1.70;;;;;;;;;;4993072;28;20073;-65
2021/12/12 08:58:57;;;;;;;10.70;1.70;;;;;;;;;;4992101;28;20026;-65
2021/12/12 09:01:23;;;;;;;13.10;3.83;;;;;;;;;;4991334;28;20096;-65
2021/12/12 09:03:52;;;;;;;16.50;2.42;;;;;;;;;;4990611;28;20022;-65
2021/12/12 09:06:19;;;;;;;7.47;1.77;;;;;;;;;;4991414;28;20053;-65
2021/12/12 09:09:01;;;;;;;6.65;1.65;;;;;;;;;;4992126;28;20084;-65
2021/12/12 09:11:30;;;;;;;8.48;1.58;;;;;;;;;;4989002;28;20061;-65
2021/12/12 09:13:58;;;;;;;8.25;2.10;;;;;;;;;;4993388;28;20036;-65
2021/12/12 09:16:29;;;;;;;8.00;1.90;;;;;;;;;;4994573;28;20033;-65
2021/12/12 09:19:00;;;;;;;14.20;2.15;;;;;;;;;;4991809;28;20035;-65
2021/12/12 09:21:33;;;;;;;4.50;1.55;;;;;;;;;;4990649;28;20038;-65
2021/12/12 09:24:10;;;;;;;8.93;2.05;;;;;;;;;;4993544;28;20050;-65
2021/12/12 09:26:38;;;;;;;7.13;1.60;;;;;;;;;;4990938;28;20033;-65
2021/12/12 09:29:13;;;;;;;7.45;1.35;;;;;;;;;;4988673;28;20084;-65
2021/12/12 09:31:43;;;;;;;6.38;1.92;;;;;;;;;;4991898;28;20034;-65
2021/12/12 09:34:17;;;;;;;10.40;1.90;;;;;;;;;;4993376;28;20061;-65
2021/12/12 09:37:03;;;;;;;9.38;2.17;;;;;;;;;;4991750;28;20039;-65
2021/12/12 09:39:37;;;;;;;13.23;3.33;;;;;;;;;;4986959;28;20386;-65
2021/12/12 09:42:04;;;;;;;5.70;1.42;;;;;;;;;;4991602;28;20026;-65
2021/12/12 09:45:02;;;;;;;8.50;2.05;;;;;;;;;;4991003;28;20618;-65
2021/12/12 09:47:59;;;;;;;8.18;1.73;;;;;;;;;;4966824;28;20066;-65
2021/12/12 09:53:47;;;;;;;9.77;1.50;;;;;;;;;;4970557;28;20554;-65
2021/12/12 09:56:32;;;;;;;11.07;1.80;;;;;;;;;;4973271;28;20129;-65
2021/12/12 09:59:04;;;;;;;4.43;1.48;;;;;;;;;;4970314;28;20026;-65
2021/12/12 10:01:30;;;;;;;6.07;1.70;;;;;;;;;;4970772;28;20593;-65
2021/12/12 10:04:16;;;;;;;7.57;2.22;;;;;;;;;;4969916;28;20043;-65
2021/12/12 10:06:56;;;;;;;8.60;2.00;;;;;;;;;;4969605;28;20037;-65
2021/12/12 10:09:25;;;;;;;12.18;2.30;;;;;;;;;;4967096;28;20101;-65
2021/12/12 10:11:58;;;;;;;7.68;1.80;;;;;;;;;;4969544;28;20402;-65
2021/12/12 10:14:37;;;;;;;5.95;1.75;;;;;;;;;;4972835;28;20126;-65
2021/12/12 10:17:17;;;;;;;10.52;2.20;;;;;;;;;;4970588;28;20038;-65
2021/12/12 10:19:43;;;;;;;9.23;1.77;;;;;;;;;;4971820;28;20118;-65
2021/12/12 10:22:13;;;;;;;8.02;2.30;;;;;;;;;;4982773;28;20038;-65
2021/12/12 10:24:41;;;;;;;6.13;1.58;;;;;;;;;;4993072;28;20034;-65
2021/12/12 10:27:26;;;;;;;11.90;2.03;;;;;;;;;;4991107;28;20046;-65
2021/12/12 10:30:08;;;;;;;8.70;1.33;;;;;;;;;;4989644;28;20026;-65
2021/12/12 10:32:37;;;;;;;7.03;1.50;;;;;;;;;;4990141;28;20110;-65
2021/12/12 10:35:08;;;;;;;5.10;1.42;;;;;;;;;;4991294;28;20509;-65
2021/12/12 10:37:40;;;;;;;8.02;3.00;;;;;;;;;;4989387;28;20026;-65
2021/12/12 10:40:13;;;;;;;9.27;1.42;;;;;;;;;;4984331;28;20023;-65
2021/12/12 10:42:45;;;;;;;3.92;1.08;;;;;;;;;;4988035;28;20038;-65
2021/12/12 10:45:17;;;;;;;7.35;1.30;;;;;;;;;;4984540;28;20026;-65
2021/12/12 10:47:43;;;;;;;9.50;1.30;;;;;;;;;;4987024;28;20070;-65
2021/12/12 10:50:13;;;;;;;8.18;1.30;;;;;;;;;;4987000;28;20042;-65
2021/12/12 10:52:57;;;;;;;7.07;1.10;;;;;;;;;;4991482;28;20397;-65
2021/12/12 10:55:35;;;;;;;6.32;1.77;;;;;;;;;;4990968;28;20037;-65
2021/12/12 10:58:15;;;;;;;5.80;1.55;;;;;;;;;;4986279;28;20026;-65
2021/12/12 11:00:47;;;;;;;5.75;1.40;;;;;;;;;;4993120;28;20030;-65
2021/12/12 11:03:18;;;;;;;4.60;1.20;;;;;;;;;;4991346;28;20041;-65
2021/12/12 11:05:51;;;;;;;7.25;1.65;;;;;;;;;;4992113;28;20033;-65
2021/12/12 11:08:17;;;;;;;;;;;;;;;;;;4992494;28;20034;-65
2021/12/12 11:10:47;;;;;;;7.03;1.42;;;;;;;;;;4991507;28;20395;-64
2021/12/12 11:13:26;;;;;;;8.23;1.60;;;;;;;;;;4989385;28;20038;-64
2021/12/12 11:16:00;;;;;;;4.68;1.40;;;;;;;;;;4992230;28;20027;-64
2021/12/12 11:18:26;;;;;;;6.00;1.00;;;;;;;;;;4991971;28;20039;-64
2021/12/12 11:20:54;;;;;;;5.68;1.70;;;;;;;;;;4991781;28;20491;-64
2021/12/12 11:23:20;;;;;;;6.93;1.40;;;;;;;;;;4992230;28;20527;-64
2021/12/12 11:25:52;;;;;;;3.17;1.33;;;;;;;;;;4994306;28;20415;-64
2021/12/12 11:28:21;;;;;;;8.07;1.30;;;;;;;;;;5008393;28;20035;-64
2021/12/12 11:30:50;;;;;;;3.72;1.10;;;;;;;;;;4988699;28;20399;-64
2021/12/12 11:33:17;;;;;;;7.10;1.38;;;;;;;;;;4990709;28;20037;-64
2021/12/12 11:35:46;;;;;;;3.22;1.13;;;;;;;;;;4991755;28;20585;-64
2021/12/12 11:38:15;;;;;;;5.75;1.13;;;;;;;;;;4991502;28;20489;-64
2021/12/12 11:40:41;;;;;;;3.95;1.13;;;;;;;;;;4991322;28;20525;-64
2021/12/12 11:43:33;;;;;;;6.55;1.48;;;;;;;;;;4992277;28;20030;-64
2021/12/12 11:46:05;;;;;;;7.45;1.27;;;;;;;;;;4990110;28;20126;-64
2021/12/12 11:48:50;;;;;;;7.05;1.45;;;;;;;;;;4991179;28;20045;-64
2021/12/12 11:51:19;;;;;;;7.07;1.73;;;;;;;;;;4990723;28;20037;-64
2021/12/12 11:54:08;;;;;;;4.05;1.80;;;;;;;;;;4990202;28;20387;-64
2021/12/12 11:56:45;;;;;;;7.53;1.38;;;;;;;;;;4985777;28;20125;-64
2021/12/12 11:59:20;;;;;;;6.90;2.58;;;;;;;;;;4993324;28;20033;-64
2021/12/12 12:01:49;;;;;;;6.95;1.17;;;;;;;;;;4992092;28;20085;-64
2021/12/12 12:04:34;;;;;;;4.45;1.55;;;;;;;;;;4990103;28;20034;-64
2021/12/12 12:07:20;;;;;;;4.07;1.00;;;;;;;;;;4992140;28;20026;-64
2021/12/12 12:09:49;;;;;;;5.28;1.60;;;;;;;;;;4930416;29;20071;-64
2021/12/12 12:12:27;;;;;;;2.92;0.95;;;;;;;;;;4936181;29;20052;-64
2021/12/12 12:15:12;;;;;;;5.55;1.20;;;;;;;;;;4916913;29;20028;-63
2021/12/12 12:17:40;;;;;;;5.60;1.73;;;;;;;;;;4934683;29;20035;-63
2021/12/12 12:20:12;;;;;;;11.23;1.50;;;;;;;;;;4935271;29;20039;-62
2021/12/12 12:22:46;;;;;;;3.45;1.30;;;;;;;;;;4931885;29;20031;-63
2021/12/12 12:25:18;;;;;;;6.00;1.27;;;;;;;;;;4932701;29;20043;-65
2021/12/12 12:27:51;;;;;;;7.77;1.53;;;;;;;;;;4915626;29;20063;-62
2021/12/12 12:30:32;;;;;;;3.38;1.13;;;;;;;;;;4932503;29;20091;-63
2021/12/12 12:33:30;;;;;;;6.13;1.50;;;;;;;;;;4932882;29;20111;-63
2021/12/12 12:36:15;;;;;;;5.95;1.30;;;;;;;;;;4931219;29;20515;-63
2021/12/12 12:38:59;;;;;;;6.80;1.38;;;;;;;;;;4931765;29;20433;-63
2021/12/12 12:41:44;;;;;;;3.28;1.63;;;;;;;;;;4937092;29;20131;-63
2021/12/12 12:44:28;;;;;;;7.00;1.27;;;;;;;;;;4935068;29;20035;-63
2021/12/12 12:47:06;;;;;;;8.25;1.40;;;;;;;;;;4960811;28;20687;-63
2021/12/12 12:49:35;;;;;;;7.13;1.35;;;;;;;;;;4992906;28;20026;-63
2021/12/12 12:52:17;;;;;;;4.03;1.70;;;;;;;;;;4988550;28;20105;-63
2021/12/12 12:55:02;;;;;;;7.60;1.63;;;;;;;;;;4990924;28;20026;-63
2021/12/12 12:57:37;;;;;;;9.40;2.00;;;;;;;;;;4990950;28;20034;-63
2021/12/12 13:00:10;;;;;;;5.10;1.38;;;;;;;;;;4996333;28;20074;-63
2021/12/12 13:02:39;;;;;;;9.55;1.20;;;;;;;;;;4987497;28;20026;-63
2021/12/12 13:05:08;;;;;;;6.40;1.10;;;;;;;;;;4994176;28;21775;-63
2021/12/12 13:07:40;;;;;;;4.10;1.63;;;;;;;;;;4992391;28;20034;-63
2021/12/12 13:10:21;;;;;;;1.48;0.98;;;;;;;;;;4992751;28;20026;-62
2021/12/12 13:13:05;;;;;;;3.33;0.90;;;;;;;;;;4985973;28;20023;-62
2021/12/12 13:15:45;;;;;;;6.55;1.40;;;;;;;;;;4989889;28;20058;-63
2021/12/12 13:18:50;;;;;;;3.17;1.17;;;;;;;;;;4992776;28;20485;-63
2021/12/12 13:21:22;;;;;;;4.30;1.30;;;;;;;;;;4929460;29;20067;-63
2021/12/12 13:24:03;;;;;;;7.13;1.10;;;;;;;;;;4932175;29;20035;-62
2021/12/12 13:26:46;;;;;;;4.10;1.30;;;;;;;;;;4932169;29;20427;-62
2021/12/12 13:29:16;;;;;;;;;;;;;;;;;;4916314;29;20564;-62
2021/12/12 13:31:52;;;;;;;3.22;1.77;;;;;;;;;;4930210;29;19978;-62
2021/12/12 13:34:42;;;;;;;7.82;1.73;;;;;;;;;;4932314;29;20047;-62
2021/12/12 13:37:14;;;;;;;5.05;1.55;;;;;;;;;;4876110;29;20048;-62
2021/12/12 13:39:58;;;;;;;3.50;1.40;;;;;;;;;;4877309;29;20051;-63
2021/12/12 13:42:44;;;;;;;6.75;1.48;;;;;;;;;;4877575;29;20050;-63
2021/12/12 13:45:18;;;;;;;4.03;1.55;;;;;;;;;;4875268;29;20060;-62
2021/12/12 13:48:02;;;;;;;6.03;1.48;;;;;;;;;;4876893;29;20047;-62
2021/12/12 13:50:38;;;;;;;3.85;1.27;;;;;;;;;;4873555;29;20033;-62
2021/12/12 13:53:24;;;;;;;5.57;1.38;;;;;;;;;;4944924;28;20483;-63
2021/12/12 13:55:53;;;;;;;7.57;1.35;;;;;;;;;;4872811;29;20041;-63
2021/12/12 13:58:29;;;;;;;5.47;1.92;;;;;;;;;;4872786;29;20040;-62
2021/12/12 14:01:05;;;;;;;4.53;2.13;;;;;;;;;;4859223;29;20102;-62
2021/12/12 14:03:33;;;;;;;4.40;1.90;;;;;;;;;;4875714;29;20052;-62
2021/12/12 14:06:01;;;;;;;7.45;2.13;;;;;;;;;;4875313;29;20065;-63
2021/12/12 14:08:29;;;;;;;5.35;1.60;;;;;;;;;;4874336;29;20096;-63
2021/12/12 14:10:57;;;;;;;7.60;1.88;;;;;;;;;;4875087;29;20045;-63
2021/12/12 14:13:25;;;;;;;5.07;1.63;;;;;;;;;;4880518;29;20072;-63
2021/12/12 14:15:54;;;;;;;7.85;2.40;;;;;;;;;;4911615;29;20044;-62
2021/12/12 14:18:21;;;;;;;3.88;1.73;;;;;;;;;;4911662;29;20032;-62
2021/12/12 14:20:49;;;;;;;9.02;1.95;;;;;;;;;;4907898;29;20174;-62
2021/12/12 14:23:17;;;;;;;4.60;1.50;;;;;;;;;;4910026;29;20083;-62
2021/12/12 14:25:45;;;;;;;7.03;1.85;;;;;;;;;;4908551;29;20108;-63
2021/12/12 14:28:11;;;;;;;11.70;1.92;;;;;;;;;;4909974;29;20032;-62
2021/12/12 14:30:39;;;;;;;6.07;1.98;;;;;;;;;;4910543;29;20075;-62
2021/12/12 14:33:10;;;;;;;2.72;1.42;;;;;;;;;;4953449;28;20498;-62
2021/12/12 14:35:42;;;;;;;6.10;1.73;;;;;;;;;;4993441;28;20055;-63
2021/12/12 14:38:08;;;;;;;4.00;1.58;;;;;;;;;;4993804;28;20038;-63
2021/12/12 14:40:36;;;;;;;7.30;1.85;;;;;;;;;;4991295;28;20036;-62
2021/12/12 14:43:07;;;;;;;5.32;1.30;;;;;;;;;;4994720;28;20049;-62
2021/12/12 14:45:39;;;;;;;7.13;1.73;;;;;;;;;;4992991;28;20034;-62
2021/12/12 14:48:07;;;;;;;7.30;1.80;;;;;;;;;;4993775;28;20046;-62
2021/12/12 14:50:42;;;;;;;5.10;1.55;;;;;;;;;;4993825;28;20106;-62
2021/12/12 14:53:09;;;;;;;6.68;1.70;;;;;;;;;;4994157;28;20066;-63
2021/12/12 14:55:40;;;;;;;4.75;1.60;;;;;;;;;;4994224;28;20022;-62
2021/12/12 14:58:12;;;;;;;4.03;1.30;;;;;;;;;;4993257;28;20023;-62
2021/12/12 15:00:56;;;;;;;12.57;2.42;;;;;;;;;;4981631;28;20030;-62
2021/12/12 15:03:31;;;;;;;9.60;1.77;;;;;;;;;;4994186;28;20451;-62
2021/12/12 15:06:02;;;;;;;2.83;1.80;;;;;;;;;;4988161;28;20117;-62
2021/12/12 15:08:37;;;;;;;16.88;12.30;;;;;;;;;;4990605;28;20117;-62
2021/12/12 15:11:10;;;;;;;6.95;2.00;;;;;;;;;;4992661;28;20041;-62
2021/12/12 15:13:40;;;;;;;9.20;2.15;;;;;;;;;;4990411;28;20506;-62
2021/12/12 15:16:08;;;;;;;3.63;1.30;;;;;;;;;;4990247;28;20040;-62